createdAt,value
2019-03-17T00:00:19.141Z,928.6
2019-03-17T00:01:19.039Z,928.7
2019-03-17T00:02:18.968Z,928.6
2019-03-17T00:03:18.877Z,928.6
2019-03-17T00:04:32.195Z,928.7
2019-03-17T00:05:32.090Z,928.7
2019-03-17T00:06:31.983Z,928.6
2019-03-17T00:07:31.935Z,928.6
2019-03-17T00:08:31.828Z,928.6
2019-03-17T00:09:31.741Z,928.6
2019-03-17T00:10:32.133Z,928.5
2019-03-17T00:11:32.020Z,928.5
2019-03-17T00:12:32.513Z,928.5
2019-03-17T00:13:32.401Z,928.7
2019-03-17T00:14:32.303Z,928.5
2019-03-17T00:15:32.207Z,928.5
2019-03-17T00:16:32.098Z,928.5
2019-03-17T00:17:31.983Z,928.4
2019-03-17T00:18:31.891Z,928.4
2019-03-17T00:19:31.825Z,928.5
2019-03-17T00:20:32.233Z,928.5
2019-03-17T00:21:32.133Z,928.4
2019-03-17T00:22:32.031Z,928.4
2019-03-17T00:23:31.971Z,928.5
2019-03-17T00:24:31.883Z,928.5
2019-03-17T00:25:31.801Z,927.2
2019-03-17T00:26:31.706Z,928.5
2019-03-17T00:27:31.609Z,928.3
2019-03-17T00:28:31.497Z,928.3
2019-03-17T00:29:31.241Z,928.5
2019-03-17T00:30:31.653Z,928.5
2019-03-17T00:31:31.558Z,928.4
2019-03-17T00:32:31.455Z,928.5
2019-03-17T00:33:31.358Z,928.5
2019-03-17T00:34:44.993Z,928.5
2019-03-17T00:35:44.896Z,928.6
2019-03-17T00:36:44.813Z,928.5
2019-03-17T00:37:44.713Z,928.4
2019-03-17T00:38:44.597Z,928.5
2019-03-17T00:39:44.502Z,928.5
2019-03-17T00:40:44.819Z,928.5
2019-03-17T00:41:44.735Z,928.4
2019-03-17T00:42:44.639Z,928.5
2019-03-17T00:43:44.518Z,928.5
2019-03-17T00:44:44.405Z,928.3
2019-03-17T00:45:44.331Z,928.4
2019-03-17T00:46:44.197Z,928.3
2019-03-17T00:47:44.088Z,928.3
2019-03-17T00:48:43.975Z,928.4
2019-03-17T00:49:43.867Z,928.4
2019-03-17T00:50:44.219Z,928.4
2019-03-17T00:51:44.108Z,928.3
2019-03-17T00:52:44.011Z,928.3
2019-03-17T00:53:43.907Z,928.4
2019-03-17T00:54:43.783Z,928.3
2019-03-17T00:55:43.698Z,928.3
2019-03-17T00:56:43.601Z,928.2
2019-03-17T00:57:43.519Z,928.3
2019-03-17T00:58:43.413Z,928.3
2019-03-17T00:59:43.300Z,928.2
2019-03-17T01:00:43.650Z,928.3
2019-03-17T01:01:43.565Z,928.2
2019-03-17T01:02:43.463Z,928.1
2019-03-17T01:03:43.361Z,928.2
2019-03-17T01:04:56.620Z,928.2
2019-03-17T01:05:56.622Z,928
2019-03-17T01:06:56.517Z,928.2
2019-03-17T01:07:56.401Z,928.1
2019-03-17T01:08:56.293Z,928.1
2019-03-17T01:09:56.199Z,928.1
2019-03-17T01:10:56.515Z,928
2019-03-17T01:11:56.423Z,928
2019-03-17T01:12:56.316Z,927.9
2019-03-17T01:13:56.247Z,928
2019-03-17T01:14:56.146Z,928
2019-03-17T01:15:56.033Z,928.1
2019-03-17T01:16:55.957Z,928
2019-03-17T01:17:55.845Z,928
2019-03-17T01:18:55.809Z,927.9
2019-03-17T01:19:55.683Z,928
2019-03-17T01:20:56.023Z,926.6
2019-03-17T01:21:55.915Z,927.9
2019-03-17T01:22:55.823Z,927.8
2019-03-17T01:23:55.712Z,928
2019-03-17T01:24:55.631Z,927.8
2019-03-17T01:25:55.547Z,927.9
2019-03-17T01:26:55.435Z,927.7
2019-03-17T01:27:55.340Z,927.7
2019-03-17T01:28:55.238Z,927.9
2019-03-17T01:29:57.931Z,927.8
2019-03-17T01:30:58.253Z,927.9
2019-03-17T01:31:58.149Z,927.7
2019-03-17T01:32:58.077Z,927.8
2019-03-17T01:33:57.975Z,927.7
2019-03-17T01:35:11.045Z,927.7
2019-03-17T01:36:10.961Z,927.7
2019-03-17T01:37:10.875Z,926.8
2019-03-17T01:38:10.805Z,927.7
2019-03-17T01:39:10.699Z,927.7
2019-03-17T01:40:10.611Z,927.7
2019-03-17T01:41:10.957Z,927.7
2019-03-17T01:42:10.966Z,927.8
2019-03-17T01:43:10.853Z,927.8
2019-03-17T01:44:10.743Z,927.7
2019-03-17T01:45:10.713Z,927.7
2019-03-17T01:46:10.579Z,927.7
2019-03-17T01:47:10.452Z,927.7
2019-03-17T01:48:10.337Z,927.7
2019-03-17T01:49:10.257Z,927.6
2019-03-17T01:50:10.148Z,927.2
2019-03-17T01:51:10.469Z,927.6
2019-03-17T01:52:10.363Z,927.5
2019-03-17T01:53:10.248Z,927.5
2019-03-17T01:54:10.168Z,927.5
2019-03-17T01:55:10.061Z,927.5
2019-03-17T01:56:09.959Z,927.5
2019-03-17T01:57:09.841Z,927.6
2019-03-17T01:58:09.737Z,927.6
2019-03-17T01:59:09.629Z,927.6
2019-03-17T02:00:09.537Z,927.5
2019-03-17T02:01:12.796Z,927.5
2019-03-17T02:02:12.700Z,927.5
2019-03-17T02:03:12.606Z,927.5
2019-03-17T02:04:12.513Z,927.5
2019-03-17T02:05:23.337Z,927.7
2019-03-17T02:06:23.257Z,927.5
2019-03-17T02:07:23.166Z,926
2019-03-17T02:08:23.045Z,927.5
2019-03-17T02:09:22.937Z,927.6
2019-03-17T02:10:22.835Z,927.5
2019-03-17T02:11:23.159Z,927.4
2019-03-17T02:12:23.062Z,927.5
2019-03-17T02:13:22.995Z,927.5
2019-03-17T02:14:22.883Z,927.4
2019-03-17T02:15:22.799Z,927.3
2019-03-17T02:16:22.686Z,927.4
2019-03-17T02:17:22.580Z,927.4
2019-03-17T02:18:22.465Z,927.5
2019-03-17T02:19:22.345Z,927.5
2019-03-17T02:20:22.254Z,927.4
2019-03-17T02:21:22.547Z,926.8
2019-03-17T02:22:23.200Z,927.5
2019-03-17T02:23:23.079Z,927.5
2019-03-17T02:24:22.963Z,927.4
2019-03-17T02:25:22.891Z,927.5
2019-03-17T02:26:22.791Z,927.1
2019-03-17T02:27:22.686Z,927.5
2019-03-17T02:28:22.562Z,927.5
2019-03-17T02:29:22.449Z,927.6
2019-03-17T02:30:22.449Z,927.6
2019-03-17T02:31:22.856Z,927.6
2019-03-17T02:32:22.797Z,927.6
2019-03-17T02:33:22.752Z,927.6
2019-03-17T02:34:22.660Z,927.6
2019-03-17T02:35:40.780Z,927.7
2019-03-17T02:36:40.874Z,927.6
2019-03-17T02:37:40.823Z,927.7
2019-03-17T02:38:40.748Z,927.7
2019-03-17T02:39:40.694Z,927.6
2019-03-17T02:40:40.625Z,927.6
2019-03-17T02:41:40.990Z,927.7
2019-03-17T02:42:40.925Z,927.7
2019-03-17T02:43:40.826Z,927.7
2019-03-17T02:44:40.739Z,927.6
2019-03-17T02:45:40.737Z,927.6
2019-03-17T02:46:40.648Z,927.5
2019-03-17T02:47:40.561Z,927.6
2019-03-17T02:48:40.502Z,927.6
2019-03-17T02:49:40.414Z,927.6
2019-03-17T02:50:40.344Z,927.5
2019-03-17T02:51:40.745Z,927.6
2019-03-17T02:52:40.812Z,927.7
2019-03-17T02:53:40.768Z,927.5
2019-03-17T02:54:40.676Z,927.6
2019-03-17T02:55:40.576Z,927.4
2019-03-17T02:56:40.571Z,927.4
2019-03-17T02:57:40.501Z,927.5
2019-03-17T02:58:40.413Z,927.5
2019-03-17T02:59:40.342Z,927.5
2019-03-17T03:00:40.259Z,927.6
2019-03-17T03:01:40.640Z,927.5
2019-03-17T03:02:40.606Z,927.5
2019-03-17T03:03:40.500Z,927.4
2019-03-17T03:04:40.475Z,927.5
2019-03-17T03:05:56.496Z,927.5
2019-03-17T03:06:56.406Z,927.5
2019-03-17T03:07:56.331Z,927.3
2019-03-17T03:08:56.242Z,927.4
2019-03-17T03:09:56.139Z,927.2
2019-03-17T03:10:56.078Z,927.3
2019-03-17T03:11:56.461Z,927.5
2019-03-17T03:12:56.407Z,927.4
2019-03-17T03:13:56.340Z,927.4
2019-03-17T03:14:56.249Z,927.4
2019-03-17T03:15:56.239Z,927.4
2019-03-17T03:16:56.172Z,927.4
2019-03-17T03:17:56.089Z,927.3
2019-03-17T03:18:56.104Z,927.4
2019-03-17T03:19:56.088Z,927.5
2019-03-17T03:20:56.019Z,926.2
2019-03-17T03:21:56.370Z,927.3
2019-03-17T03:22:56.301Z,927.3
2019-03-17T03:23:56.231Z,927.2
2019-03-17T03:24:56.177Z,927.1
2019-03-17T03:25:56.112Z,927.3
2019-03-17T03:26:56.028Z,927.3
2019-03-17T03:27:56.053Z,927.1
2019-03-17T03:28:55.962Z,926.5
2019-03-17T03:29:55.860Z,927.1
2019-03-17T03:30:55.810Z,927.2
2019-03-17T03:31:56.290Z,927.2
2019-03-17T03:32:56.444Z,927.3
2019-03-17T03:33:56.461Z,927.2
2019-03-17T03:34:56.485Z,927.2
2019-03-17T03:36:12.804Z,925.7
2019-03-17T03:37:12.686Z,927.1
2019-03-17T03:38:12.639Z,927.2
2019-03-17T03:39:12.623Z,927
2019-03-17T03:40:12.564Z,927.2
2019-03-17T03:41:12.473Z,927.1
2019-03-17T03:42:12.818Z,927.2
2019-03-17T03:43:12.738Z,927.1
2019-03-17T03:44:12.783Z,927.1
2019-03-17T03:45:12.806Z,927.1
2019-03-17T03:46:12.820Z,927.1
2019-03-17T03:47:12.565Z,927.2
2019-03-17T03:48:12.470Z,927.2
2019-03-17T03:49:12.210Z,927.2
2019-03-17T03:50:12.152Z,927.1
2019-03-17T03:51:11.878Z,927.2
2019-03-17T03:52:12.252Z,927.2
2019-03-17T03:53:12.169Z,927.1
2019-03-17T03:54:12.071Z,927.1
2019-03-17T03:55:11.997Z,927.1
2019-03-17T03:56:11.906Z,927
2019-03-17T03:57:11.793Z,927.1
2019-03-17T03:58:11.689Z,927
2019-03-17T03:59:11.617Z,927
2019-03-17T04:00:11.689Z,927.1
2019-03-17T04:01:11.644Z,927
2019-03-17T04:02:12.024Z,927.1
2019-03-17T04:03:11.920Z,927.1
2019-03-17T04:04:11.830Z,927
2019-03-17T04:05:11.778Z,926.9
2019-03-17T04:06:27.883Z,927
2019-03-17T04:07:27.884Z,925.6
2019-03-17T04:08:27.837Z,927
2019-03-17T04:09:27.660Z,926.9
2019-03-17T04:10:27.610Z,927
2019-03-17T04:11:27.564Z,927
2019-03-17T04:12:28.011Z,927
2019-03-17T04:13:28.034Z,926.9
2019-03-17T04:14:27.779Z,926.9
2019-03-17T04:15:27.678Z,927
2019-03-17T04:16:27.672Z,927
2019-03-17T04:17:27.428Z,926.3
2019-03-17T04:18:27.328Z,926.4
2019-03-17T04:19:27.241Z,926.4
2019-03-17T04:20:27.181Z,926.9
2019-03-17T04:21:27.165Z,927
2019-03-17T04:22:27.557Z,926.9
2019-03-17T04:23:27.525Z,927
2019-03-17T04:24:27.315Z,927
2019-03-17T04:25:27.261Z,926.8
2019-03-17T04:26:27.264Z,926.8
2019-03-17T04:27:27.183Z,926.9
2019-03-17T04:28:27.160Z,927
2019-03-17T04:29:27.075Z,926.8
2019-03-17T04:30:26.857Z,927
2019-03-17T04:31:26.756Z,927
2019-03-17T04:32:27.161Z,927
2019-03-17T04:33:27.053Z,927
2019-03-17T04:34:26.965Z,927
2019-03-17T04:35:26.865Z,927
2019-03-17T04:36:41.487Z,927
2019-03-17T04:37:41.264Z,926.9
2019-03-17T04:38:44.853Z,926.9
2019-03-17T04:39:44.772Z,926.5
2019-03-17T04:40:44.675Z,926.6
2019-03-17T04:41:44.599Z,926.9
2019-03-17T04:42:44.994Z,926.9
2019-03-17T04:43:44.889Z,926.7
2019-03-17T04:44:44.855Z,926.9
2019-03-17T04:45:44.765Z,926.9
2019-03-17T04:46:44.662Z,926.9
2019-03-17T04:47:44.653Z,926.8
2019-03-17T04:48:45.012Z,926.9
2019-03-17T04:49:44.968Z,926.9
2019-03-17T04:50:44.890Z,926.9
2019-03-17T04:51:44.780Z,926.9
2019-03-17T04:52:45.108Z,926.9
2019-03-17T04:53:45.108Z,926.8
2019-03-17T04:54:44.999Z,926.9
2019-03-17T04:55:44.885Z,926.9
2019-03-17T04:56:44.795Z,925.8
2019-03-17T04:57:44.672Z,926.8
2019-03-17T04:58:44.567Z,927
2019-03-17T04:59:44.458Z,926.9
2019-03-17T05:00:44.354Z,927
2019-03-17T05:01:44.237Z,927
2019-03-17T05:02:44.607Z,926.9
2019-03-17T05:03:44.503Z,927
2019-03-17T05:04:44.415Z,926.9
2019-03-17T05:05:44.293Z,927
2019-03-17T05:06:53.971Z,927
2019-03-17T05:07:53.860Z,926.8
2019-03-17T05:08:53.762Z,926.8
2019-03-17T05:09:53.679Z,927
2019-03-17T05:10:53.589Z,927
2019-03-17T05:11:53.465Z,927
2019-03-17T05:12:53.815Z,927
2019-03-17T05:13:53.716Z,927
2019-03-17T05:14:53.599Z,926.8
2019-03-17T05:15:53.496Z,927
2019-03-17T05:16:53.444Z,927.1
2019-03-17T05:17:53.343Z,927
2019-03-17T05:18:53.230Z,927
2019-03-17T05:19:53.155Z,927
2019-03-17T05:20:53.049Z,927
2019-03-17T05:21:52.999Z,927
2019-03-17T05:22:53.417Z,927
2019-03-17T05:23:53.367Z,926.3
2019-03-17T05:24:53.259Z,926.9
2019-03-17T05:25:53.217Z,927
2019-03-17T05:26:52.944Z,927
2019-03-17T05:27:52.840Z,927
2019-03-17T05:28:52.573Z,927
2019-03-17T05:29:52.330Z,926.9
2019-03-17T05:30:52.069Z,926.8
2019-03-17T05:31:51.823Z,926.9
2019-03-17T05:32:52.137Z,926.9
2019-03-17T05:33:52.048Z,926.9
2019-03-17T05:34:52.037Z,926.9
2019-03-17T05:35:51.977Z,926.9
2019-03-17T05:37:07.199Z,926.9
2019-03-17T05:38:07.109Z,927
2019-03-17T05:39:07.003Z,926.9
2019-03-17T05:40:06.955Z,927
2019-03-17T05:41:06.935Z,927
2019-03-17T05:42:06.811Z,927
2019-03-17T05:43:10.530Z,926.9
2019-03-17T05:44:10.450Z,926.8
2019-03-17T05:45:10.376Z,926.8
2019-03-17T05:46:10.287Z,926.9
2019-03-17T05:47:10.177Z,926.9
2019-03-17T05:48:10.051Z,926.8
2019-03-17T05:49:09.965Z,926.7
2019-03-17T05:50:09.879Z,926.8
2019-03-17T05:51:09.809Z,926.8
2019-03-17T05:52:09.785Z,926.8
2019-03-17T05:53:10.115Z,926.8
2019-03-17T05:54:10.001Z,926.8
2019-03-17T05:55:10.020Z,926.8
2019-03-17T05:56:09.961Z,926.8
2019-03-17T05:57:09.904Z,926.7
2019-03-17T05:58:09.792Z,926.7
2019-03-17T05:59:09.679Z,926.8
2019-03-17T06:00:09.589Z,926.8
2019-03-17T06:01:09.492Z,926.7
2019-03-17T06:02:09.384Z,926.5
2019-03-17T06:03:09.774Z,926.6
2019-03-17T06:04:09.652Z,926.6
2019-03-17T06:05:09.533Z,926.6
2019-03-17T06:06:09.399Z,926.5
2019-03-17T06:07:19.725Z,926.6
2019-03-17T06:08:19.496Z,926.5
2019-03-17T06:09:19.232Z,926.6
2019-03-17T06:10:18.951Z,926.5
2019-03-17T06:11:18.683Z,926.5
2019-03-17T06:12:18.429Z,926.5
2019-03-17T06:13:18.635Z,926.5
2019-03-17T06:14:18.373Z,926.3
2019-03-17T06:15:18.282Z,925.3
2019-03-17T06:16:18.011Z,926.5
2019-03-17T06:17:17.909Z,926.6
2019-03-17T06:18:20.661Z,926.5
2019-03-17T06:19:20.439Z,926.4
2019-03-17T06:20:20.389Z,926.6
2019-03-17T06:21:20.116Z,926.6
2019-03-17T06:22:19.856Z,926.6
2019-03-17T06:23:20.221Z,926.7
2019-03-17T06:24:20.138Z,926.7
2019-03-17T06:25:20.035Z,926.7
2019-03-17T06:26:19.934Z,926.6
2019-03-17T06:27:19.823Z,926.7
2019-03-17T06:28:22.655Z,926.6
2019-03-17T06:29:22.545Z,926.7
2019-03-17T06:30:22.437Z,926.7
2019-03-17T06:31:22.329Z,926.7
2019-03-17T06:32:22.227Z,926.7
2019-03-17T06:33:22.568Z,926.7
2019-03-17T06:34:25.211Z,926.7
2019-03-17T06:35:25.119Z,926.7
2019-03-17T06:36:25.011Z,926.7
2019-03-17T06:37:32.170Z,926.8
2019-03-17T06:38:32.072Z,926.7
2019-03-17T06:39:31.983Z,926.7
2019-03-17T06:40:31.868Z,926.6
2019-03-17T06:41:31.927Z,926.7
2019-03-17T06:42:31.818Z,926.7
2019-03-17T06:43:32.133Z,926.7
2019-03-17T06:44:32.049Z,926.7
2019-03-17T06:45:31.958Z,926.7
2019-03-17T06:46:31.849Z,926.7
2019-03-17T06:47:31.767Z,926.7
2019-03-17T06:48:31.651Z,926.7
2019-03-17T06:49:31.561Z,926.7
2019-03-17T06:50:31.465Z,926.7
2019-03-17T06:51:31.373Z,926.7
2019-03-17T06:52:31.261Z,926.7
2019-03-17T06:53:31.582Z,926.8
2019-03-17T06:54:31.486Z,926.6
2019-03-17T06:55:31.386Z,926.7
2019-03-17T06:56:31.268Z,926.7
2019-03-17T06:57:33.793Z,926.6
2019-03-17T06:58:33.693Z,926.7
2019-03-17T06:59:33.595Z,926.7
2019-03-17T07:00:33.539Z,926.6
2019-03-17T07:01:33.431Z,926.5
2019-03-17T07:02:33.335Z,926.6
2019-03-17T07:03:33.670Z,926.8
2019-03-17T07:04:33.551Z,926.6
2019-03-17T07:05:33.458Z,926.6
2019-03-17T07:06:33.424Z,926.7
2019-03-17T07:07:45.627Z,926.6
2019-03-17T07:08:45.498Z,926.5
2019-03-17T07:09:45.399Z,926.6
2019-03-17T07:10:45.300Z,926.6
2019-03-17T07:11:45.219Z,926.7
2019-03-17T07:12:45.126Z,926.5
2019-03-17T07:13:45.450Z,926.6
2019-03-17T07:14:45.409Z,926.6
2019-03-17T07:15:45.339Z,926.6
2019-03-17T07:16:45.229Z,926.6
2019-03-17T07:17:45.139Z,926.6
2019-03-17T07:18:45.037Z,926.5
2019-03-17T07:19:44.939Z,925.5
2019-03-17T07:20:44.946Z,926.3
2019-03-17T07:21:44.827Z,926.5
2019-03-17T07:22:44.742Z,926.7
2019-03-17T07:23:45.067Z,925.4
2019-03-17T07:24:44.961Z,926.5
2019-03-17T07:25:44.856Z,926.6
2019-03-17T07:26:44.789Z,926.7
2019-03-17T07:27:44.710Z,926.5
2019-03-17T07:28:44.615Z,926.6
2019-03-17T07:29:44.501Z,926.6
2019-03-17T07:30:44.385Z,926.5
2019-03-17T07:31:44.301Z,926.5
2019-03-17T07:32:44.199Z,926.7
2019-03-17T07:33:44.549Z,926.6
2019-03-17T07:34:44.451Z,926.6
2019-03-17T07:35:47.301Z,926.2
2019-03-17T07:36:47.327Z,926.6
2019-03-17T07:38:00.126Z,926.7
2019-03-17T07:39:13.235Z,926.6
2019-03-17T07:40:13.139Z,926.6
2019-03-17T07:41:13.043Z,926.7
2019-03-17T07:42:12.947Z,926.6
2019-03-17T07:43:12.861Z,926.6
2019-03-17T07:44:13.226Z,926.5
2019-03-17T07:45:13.119Z,926.6
2019-03-17T07:46:13.020Z,926.5
2019-03-17T07:47:12.933Z,926.6
2019-03-17T07:48:12.855Z,926.5
2019-03-17T07:49:12.748Z,926.5
2019-03-17T07:50:12.655Z,926.5
2019-03-17T07:51:12.575Z,926.4
2019-03-17T07:52:12.556Z,926.5
2019-03-17T07:53:12.493Z,926.3
2019-03-17T07:54:12.915Z,926.5
2019-03-17T07:55:12.837Z,926.5
2019-03-17T07:56:12.758Z,926.5
2019-03-17T07:57:12.713Z,926.4
2019-03-17T07:58:12.643Z,926.3
2019-03-17T07:59:12.568Z,926.4
2019-03-17T08:00:12.538Z,926.3
2019-03-17T08:01:12.439Z,926.3
2019-03-17T08:02:12.419Z,926.3
2019-03-17T08:03:12.349Z,926.3
2019-03-17T08:04:12.735Z,926.5
2019-03-17T08:05:12.639Z,926.4
2019-03-17T08:06:12.546Z,926.5
2019-03-17T08:07:12.509Z,926.5
2019-03-17T08:08:12.450Z,926.5
2019-03-17T08:09:12.360Z,926.5
2019-03-17T08:10:12.333Z,926.4
2019-03-17T08:11:12.241Z,926.5
2019-03-17T08:12:12.132Z,926.5
2019-03-17T08:13:12.042Z,926.4
2019-03-17T08:14:12.405Z,926.5
2019-03-17T08:15:12.329Z,926.5
2019-03-17T08:16:12.242Z,926.4
2019-03-17T08:17:12.164Z,926.4
2019-03-17T08:18:12.113Z,926.5
2019-03-17T08:19:12.070Z,926
2019-03-17T08:20:12.053Z,926.3
2019-03-17T08:21:11.964Z,926.3
2019-03-17T08:22:11.855Z,926.3
2019-03-17T08:23:11.774Z,926.3
2019-03-17T08:24:12.171Z,926.5
2019-03-17T08:25:12.104Z,925.8
2019-03-17T08:26:12.017Z,926.1
2019-03-17T08:27:11.918Z,926.5
2019-03-17T08:28:11.804Z,926.5
2019-03-17T08:29:11.707Z,926.3
2019-03-17T08:30:11.633Z,925.7
2019-03-17T08:31:11.536Z,926.5
2019-03-17T08:32:11.501Z,926.4
2019-03-17T08:33:11.396Z,926.5
2019-03-17T08:34:11.738Z,926.6
2019-03-17T08:35:11.667Z,926.6
2019-03-17T08:36:11.572Z,926.5
2019-03-17T08:37:11.461Z,926.3
2019-03-17T08:38:23.092Z,926.5
2019-03-17T08:39:23.047Z,926.3
2019-03-17T08:40:22.969Z,926.4
2019-03-17T08:41:22.977Z,926.3
2019-03-17T08:42:22.888Z,926.5
2019-03-17T08:43:22.792Z,926.4
2019-03-17T08:44:24.871Z,926.5
2019-03-17T08:45:24.804Z,926.5
2019-03-17T08:46:24.688Z,926.5
2019-03-17T08:47:24.587Z,926.5
2019-03-17T08:48:24.496Z,926.4
2019-03-17T08:49:24.404Z,926.5
2019-03-17T08:50:24.303Z,926.4
2019-03-17T08:51:24.750Z,926.3
2019-03-17T08:52:24.704Z,926.4
2019-03-17T08:53:24.604Z,926.4
2019-03-17T08:54:25.018Z,926.4
2019-03-17T08:55:24.956Z,926.5
2019-03-17T08:56:24.880Z,926.4
2019-03-17T08:57:24.796Z,926.3
2019-03-17T08:58:24.708Z,926.3
2019-03-17T08:59:24.614Z,926.3
2019-03-17T09:00:24.517Z,926.4
2019-03-17T09:01:24.447Z,926.3
2019-03-17T09:02:24.341Z,926.4
2019-03-17T09:03:24.232Z,926.3
2019-03-17T09:04:24.585Z,926.4
2019-03-17T09:05:24.494Z,926.4
2019-03-17T09:06:24.427Z,926.4
2019-03-17T09:07:24.336Z,926.4
2019-03-17T09:08:36.314Z,926.4
2019-03-17T09:09:36.222Z,926.3
2019-03-17T09:10:36.199Z,926.3
2019-03-17T09:11:36.168Z,926.3
2019-03-17T09:12:36.066Z,926.4
2019-03-17T09:13:35.970Z,926.2
2019-03-17T09:14:36.314Z,926.3
2019-03-17T09:15:36.271Z,926.3
2019-03-17T09:16:36.212Z,925.2
2019-03-17T09:17:36.118Z,926.3
2019-03-17T09:18:36.037Z,926.3
2019-03-17T09:19:41.560Z,926.3
2019-03-17T09:20:41.501Z,926.3
2019-03-17T09:21:41.401Z,926.3
2019-03-17T09:22:41.519Z,926.3
2019-03-17T09:23:43.697Z,926.2
2019-03-17T09:24:47.952Z,926.2
2019-03-17T09:25:50.876Z,926.2
2019-03-17T09:26:50.810Z,926.1
2019-03-17T09:27:50.713Z,926.1
2019-03-17T09:28:50.716Z,926.1
2019-03-17T09:29:50.669Z,926.2
2019-03-17T09:30:50.563Z,926.2
2019-03-17T09:32:02.991Z,926.2
2019-03-17T09:33:02.945Z,926
2019-03-17T09:34:02.833Z,926
2019-03-17T09:35:03.215Z,926.2
2019-03-17T09:36:03.119Z,926.2
2019-03-17T09:37:03.044Z,926.2
2019-03-17T09:38:02.975Z,926
2019-03-17T09:39:02.880Z,926
2019-03-17T09:40:02.799Z,925
2019-03-17T09:41:02.697Z,926.1
2019-03-17T09:42:02.620Z,926.2
2019-03-17T09:43:02.546Z,926.1
2019-03-17T09:44:02.685Z,926.1
2019-03-17T09:45:03.036Z,926.1
2019-03-17T09:46:02.954Z,926.1
2019-03-17T09:47:03.910Z,926.1
2019-03-17T09:48:04.131Z,926
2019-03-17T09:49:04.054Z,926.1
2019-03-17T09:50:03.962Z,926
2019-03-17T09:51:03.898Z,925.9
2019-03-17T09:52:03.811Z,925.9
2019-03-17T09:53:03.739Z,926
2019-03-17T09:54:03.656Z,926
2019-03-17T09:55:04.370Z,925.9
2019-03-17T09:56:04.501Z,925.9
2019-03-17T09:57:04.414Z,925.8
2019-03-17T09:58:04.304Z,925.9
2019-03-17T09:59:04.233Z,925.7
2019-03-17T10:00:04.150Z,925.7
2019-03-17T10:01:04.046Z,925.7
2019-03-17T10:02:03.980Z,925.8
2019-03-17T10:03:03.888Z,925.7
2019-03-17T10:04:03.812Z,925.7
2019-03-17T10:05:04.154Z,925.7
2019-03-17T10:06:04.052Z,925.7
2019-03-17T10:07:03.953Z,925.8
2019-03-17T10:08:03.876Z,925.7
2019-03-17T10:09:03.789Z,925.5
2019-03-17T10:10:03.703Z,925.5
2019-03-17T10:11:03.662Z,925.6
2019-03-17T10:12:03.575Z,925.6
2019-03-17T10:13:03.506Z,925.7
2019-03-17T10:14:03.500Z,925.7
2019-03-17T10:15:03.885Z,925.7
2019-03-17T10:16:03.822Z,925.7
2019-03-17T10:17:03.736Z,925.6
2019-03-17T10:18:03.634Z,925.7
2019-03-17T10:19:03.542Z,925.6
2019-03-17T10:20:03.463Z,925.5
2019-03-17T10:21:03.372Z,925.6
2019-03-17T10:22:03.316Z,925.6
2019-03-17T10:23:03.278Z,925.5
2019-03-17T10:24:03.293Z,925.4
2019-03-17T10:25:03.658Z,925.6
2019-03-17T10:26:03.566Z,925.5
2019-03-17T10:27:03.469Z,925.5
2019-03-17T10:28:03.358Z,925.4
2019-03-17T10:29:03.274Z,925.5
2019-03-17T10:30:03.198Z,925.4
2019-03-17T10:31:03.107Z,925.4
2019-03-17T10:32:03.004Z,925.3
2019-03-17T10:33:02.905Z,925.4
2019-03-17T10:34:02.863Z,925.3
2019-03-17T10:35:03.218Z,925.2
2019-03-17T10:36:03.133Z,925.3
2019-03-17T10:37:03.030Z,925.3
2019-03-17T10:38:02.932Z,925.2
2019-03-17T10:39:13.615Z,925.1
2019-03-17T10:40:13.666Z,924.8
2019-03-17T10:41:13.574Z,925.2
2019-03-17T10:42:13.492Z,925.2
2019-03-17T10:43:13.382Z,925.2
2019-03-17T10:44:13.296Z,925.2
2019-03-17T10:45:13.674Z,925.2
2019-03-17T10:46:13.589Z,925.1
2019-03-17T10:47:13.507Z,925.1
2019-03-17T10:48:13.448Z,925.1
2019-03-17T10:49:13.350Z,925.2
2019-03-17T10:50:13.288Z,925
2019-03-17T10:51:13.195Z,925
2019-03-17T10:52:13.084Z,925.2
2019-03-17T10:53:13.004Z,925.1
2019-03-17T10:54:15.825Z,925.2
2019-03-17T10:55:16.212Z,925.1
2019-03-17T10:56:16.140Z,924.5
2019-03-17T10:57:16.026Z,925.2
2019-03-17T10:58:15.923Z,924
2019-03-17T10:59:15.884Z,925.1
2019-03-17T11:00:15.810Z,925.1
2019-03-17T11:01:15.753Z,925.1
2019-03-17T11:02:15.648Z,925.1
2019-03-17T11:03:15.560Z,925
2019-03-17T11:04:15.474Z,925
2019-03-17T11:05:15.811Z,925
2019-03-17T11:06:15.757Z,924.9
2019-03-17T11:07:15.645Z,925
2019-03-17T11:08:15.591Z,924.9
2019-03-17T11:09:26.537Z,925
2019-03-17T11:10:26.429Z,924.8
2019-03-17T11:11:26.373Z,925
2019-03-17T11:12:26.301Z,925
2019-03-17T11:13:26.242Z,925
2019-03-17T11:14:26.132Z,924.9
2019-03-17T11:15:26.483Z,925
2019-03-17T11:16:26.445Z,924.9
2019-03-17T11:17:26.396Z,923.8
2019-03-17T11:18:26.281Z,924.9
2019-03-17T11:19:26.874Z,924.9
2019-03-17T11:20:26.805Z,924.8
2019-03-17T11:21:26.794Z,925
2019-03-17T11:22:26.688Z,924.9
2019-03-17T11:23:26.596Z,924.9
2019-03-17T11:24:26.526Z,924.8
2019-03-17T11:25:26.870Z,924.8
2019-03-17T11:26:26.753Z,924.7
2019-03-17T11:27:26.739Z,924.8
2019-03-17T11:28:26.655Z,924.8
2019-03-17T11:29:26.574Z,924.7
2019-03-17T11:30:29.619Z,924.8
2019-03-17T11:31:29.530Z,924.8
2019-03-17T11:32:29.477Z,924.8
2019-03-17T11:33:29.366Z,924.6
2019-03-17T11:34:29.274Z,924.7
2019-03-17T11:35:29.635Z,924.7
2019-03-17T11:36:29.533Z,924.7
2019-03-17T11:37:29.681Z,924.8
2019-03-17T11:38:29.595Z,924.6
2019-03-17T11:39:39.037Z,924.7
2019-03-17T11:40:38.994Z,924.6
2019-03-17T11:41:38.905Z,924.7
2019-03-17T11:42:38.843Z,924.6
2019-03-17T11:43:38.756Z,924.5
2019-03-17T11:44:38.711Z,924.7
2019-03-17T11:45:39.153Z,924.7
2019-03-17T11:46:39.080Z,924.5
2019-03-17T11:47:38.997Z,924.6
2019-03-17T11:48:38.924Z,924.6
2019-03-17T11:49:38.823Z,924.6
2019-03-17T11:50:38.751Z,924.6
2019-03-17T11:51:38.656Z,924.7
2019-03-17T11:52:38.574Z,924.6
2019-03-17T11:53:38.487Z,924.6
2019-03-17T11:54:38.389Z,924.6
2019-03-17T11:55:38.723Z,924.6
2019-03-17T11:56:38.618Z,924.6
2019-03-17T11:57:38.742Z,924.5
2019-03-17T11:58:38.770Z,924.5
2019-03-17T11:59:38.675Z,924.5
2019-03-17T12:00:38.584Z,924.5
2019-03-17T12:01:38.495Z,924.5
2019-03-17T12:02:38.404Z,924.5
2019-03-17T12:03:38.389Z,924.5
2019-03-17T12:04:38.297Z,924.4
2019-03-17T12:05:38.669Z,924.5
2019-03-17T12:06:38.565Z,924.5
2019-03-17T12:07:38.475Z,924.5
2019-03-17T12:08:38.433Z,924.5
2019-03-17T12:09:51.316Z,924.5
2019-03-17T12:10:51.216Z,924.4
2019-03-17T12:11:51.125Z,924.3
2019-03-17T12:12:51.105Z,924.4
2019-03-17T12:13:51.026Z,924.4
2019-03-17T12:14:50.947Z,924.3
2019-03-17T12:15:51.416Z,924.4
2019-03-17T12:16:51.338Z,924.4
2019-03-17T12:17:51.257Z,924.3
2019-03-17T12:18:51.162Z,924.3
2019-03-17T12:19:51.079Z,924.1
2019-03-17T12:20:50.979Z,924.3
2019-03-17T12:21:50.949Z,924.3
2019-03-17T12:22:50.927Z,924.2
2019-03-17T12:23:50.860Z,924.3
2019-03-17T12:24:50.763Z,924.3
2019-03-17T12:25:51.202Z,924.3
2019-03-17T12:26:51.127Z,924.2
2019-03-17T12:27:51.051Z,924.2
2019-03-17T12:28:50.965Z,924.2
2019-03-17T12:29:50.895Z,924.2
2019-03-17T12:30:50.803Z,924.3
2019-03-17T12:31:50.718Z,924.2
2019-03-17T12:32:50.627Z,924.3
2019-03-17T12:33:50.538Z,924.2
2019-03-17T12:34:50.484Z,924.2
2019-03-17T12:35:50.895Z,924.1
2019-03-17T12:36:50.809Z,924.2
2019-03-17T12:37:50.699Z,924.1
2019-03-17T12:38:50.619Z,924.2
2019-03-17T12:40:04.007Z,924.1
2019-03-17T12:41:03.930Z,924.1
2019-03-17T12:42:03.833Z,924.1
2019-03-17T12:43:03.745Z,924.1
2019-03-17T12:44:03.642Z,924
2019-03-17T12:45:03.579Z,924.1
2019-03-17T12:46:03.959Z,924
2019-03-17T12:47:03.858Z,924
2019-03-17T12:48:03.785Z,924.1
2019-03-17T12:49:03.718Z,924.1
2019-03-17T12:50:03.607Z,924.1
2019-03-17T12:51:03.557Z,924.1
2019-03-17T12:52:03.485Z,924
2019-03-17T12:53:03.427Z,924.1
2019-03-17T12:54:03.361Z,924.1
2019-03-17T12:55:03.254Z,924.1
2019-03-17T12:56:03.631Z,924
2019-03-17T12:57:03.541Z,923.7
2019-03-17T12:58:03.441Z,924.1
2019-03-17T12:59:03.381Z,924.1
2019-03-17T13:00:03.308Z,924
2019-03-17T13:01:03.235Z,924
2019-03-17T13:02:03.145Z,924
2019-03-17T13:03:03.112Z,924
2019-03-17T13:04:03.286Z,923.5